Terminal Aerodrome Forecast
Issued by NWS

Home | Current Version | Previous Version | Graphics & Text | Print | Product List | Glossary On
Versions: 1 2 3 4 5 6 7 8 9 10 11 12
129
FTUS43 KPAH 150520
TAFCGI
TAF
KCGI 150520Z 1506/1606 29004KT P6SM OVC035
     FM151400 27006KT P6SM SCT040
     FM151800 23006KT P6SM BKN040
     FM160000 23006KT P6SM SCT250=

USA.gov is the U.S. government's official web portal to all federal, state and local government web resources and services.